Extreme high temperature From: 23-07-2018 05:00 Until: 24-07-2018 01:00 warning for: Extreme high temperature Level: Yellow info button
suomi:
Hellevaroitus: Lähivuorokauden aikana on odotettavissa tukalaa hellettä.

svenska:
Varning för värmebölja: Under det närmaste dygnet är den svåra hettan att vänta.

english:
Heat wave warning: Warm weather is expected during the coming 24 hours. 


Thunder radar more information blitzortung!


Löydät sääaseman tiedot myös:

European Weather Network

Finland Weather Exchange

Weather Underground

AWEKAS



Weather Underground säähistoriasivu

Päivittäin yhteenveto Huhtikuu 27, 2017 Yksiköt:  Englantilaiset    Metriset   Molemmat
« Edellinen Päivä
Seuraava Päivä »
Päivittäin Viikoittain Kuukausittain Vuosittain Mukautettu
  Korkea: Matala: Keskiarvo:
Lämpötila: TemperatureC °F -1.4 °F 1.2 °F
Kastepiste: DewpointC °F -2.4 °F 0.1 °F
Kosteus: Humidity % 76 % 91 %
Tuulen nopeus: WindSpeedKMH mph 0.0 mph 0.8 mph
Tuulenpuuska: WindSpeedGustKMH mph - -
Tuuli:- - SW
Ilmanpaine: PressurehPa in 998.5 in -
Sade: 14.5 in    
Historical Graphs
 
 
Taulukkotiedot Huhtikuu 27, 2017
Aika Lämpötila Kastepiste Ilmanpaine Tuuli Tuulen nopeus Tuulenpuuska Kosteus Sademäärä (tunneittain)
TemperatureC °F DewpointC °F PressurehPa in Calm     Humidity % HourlyPrecipMM in
00:00 0.5 °F -0.1 °F 998.5 in NW 8.0 mph 19.3 mph 96 % 0.0 in
00:15 0.6 °F 0.0 °F 998.9 in WNW 6.4 mph 24.1 mph 96 % 0.0 in
00:30 0.6 °F 0.0 °F 998.9 in NW 6.4 mph 14.5 mph 96 % 0.0 in
00:45 0.5 °F -0.1 °F 998.9 in WNW 4.8 mph 20.9 mph 96 % 0.0 in
01:00 0.5 °F -0.1 °F 999.2 in WNW 4.8 mph 17.7 mph 96 % 0.0 in
01:15 0.5 °F -0.1 °F 999.2 in WNW 4.8 mph 12.9 mph 96 % 0.0 in
01:30 0.5 °F -0.1 °F 999.2 in WNW 4.8 mph 12.9 mph 96 % 0.0 in
01:45 0.5 °F -0.1 °F 999.5 in WNW 1.6 mph 12.9 mph 96 % 0.0 in
02:00 0.5 °F 0.1 °F 999.5 in WSW 1.6 mph 6.4 mph 97 % 0.0 in
02:15 0.5 °F 0.1 °F 999.5 in West 1.6 mph 6.4 mph 97 % 0.0 in
02:30 0.5 °F 0.1 °F 999.5 in WNW 1.6 mph 11.3 mph 97 % 0.0 in
02:45 0.5 °F 0.1 °F 999.5 in Calm   8.0 mph 97 % 0.0 in
03:00 0.5 °F 0.1 °F 999.9 in Calm   6.4 mph 97 % 0.0 in
03:15 0.4 °F 0.0 °F 999.9 in Calm   6.4 mph 97 % 0.0 in
03:30 0.4 °F 0.0 °F 999.9 in WNW 1.6 mph 9.7 mph 97 % 0.3 in
03:45 0.4 °F 0.0 °F 999.9 in Calm   3.2 mph 97 % 0.3 in
04:00 0.4 °F 0.0 °F 999.9 in Calm   4.8 mph 97 % 0.3 in
04:15 0.3 °F -0.1 °F 999.9 in Calm   6.4 mph 97 % 0.3 in
04:30 0.3 °F -0.1 °F 999.9 in Calm   6.4 mph 97 % 0.0 in
04:45 0.2 °F -0.2 °F 1000.2 in Calm   1.6 mph 97 % 0.0 in
05:00 0.2 °F -0.3 °F 1000.2 in Calm   6.4 mph 97 % 0.0 in
05:15 0.2 °F -0.3 °F 1000.2 in Calm   3.2 mph 97 % 0.0 in
05:30 0.1 °F -0.3 °F 1000.2 in Calm   1.6 mph 97 % 0.0 in
05:45 0.0 °F -0.4 °F 1000.2 in Calm     97 % 0.0 in
06:00 -0.1 °F -0.5 °F 1000.2 in Calm     97 % 0.0 in
06:15 -0.2 °F -0.6 °F 1000.2 in Calm   1.6 mph 97 % 0.0 in
06:30 -0.3 °F -0.8 °F 1000.6 in Calm   3.2 mph 97 % 0.0 in
06:45 -0.5 °F -1.1 °F 1000.6 in Calm   1.6 mph 96 % 0.0 in
07:00 -0.6 °F -1.0 °F 1000.6 in Calm   1.6 mph 97 % 0.0 in
07:15 -0.6 °F -1.0 °F 1000.9 in Calm     97 % 0.0 in
07:30 -0.4 °F -0.9 °F 1000.9 in Calm     97 % 0.0 in
07:45 -0.3 °F -0.8 °F 1001.2 in Calm   1.6 mph 97 % 0.0 in
08:00 -0.2 °F -0.6 °F 1001.2 in Calm     97 % 0.0 in
08:15 -0.1 °F -0.5 °F 1001.2 in Calm     97 % 0.0 in
08:30 0.1 °F -0.3 °F 1001.6 in Calm     97 % 0.0 in
08:45 0.3 °F -0.1 °F 1001.6 in Calm     97 % 0.0 in
09:00 0.6 °F 0.1 °F 1001.9 in Calm     97 % 0.0 in
09:15 0.8 °F 0.4 °F 1001.9 in Calm     97 % 0.3 in
09:30 1.1 °F 0.7 °F 1001.9 in Calm     97 % 0.5 in
09:45 1.3 °F 0.9 °F 1002.3 in Calm     97 % 0.5 in
10:00 1.6 °F 1.1 °F 1002.3 in Calm     97 % 1.0 in
10:15 1.6 °F 1.2 °F 1002.6 in Calm   6.4 mph 97 % 1.5 in
10:30 1.7 °F 1.1 °F 1002.6 in WNW 1.6 mph 6.4 mph 96 % 1.5 in
10:45 2.2 °F 1.6 °F 1002.9 in Calm   1.6 mph 96 % 1.8 in
11:00 2.9 °F 2.4 °F 1002.9 in Calm   3.2 mph 96 % 2.3 in
11:15 3.1 °F 1.7 °F 1003.3 in SSW 1.6 mph 9.7 mph 91 % 2.3 in
11:30 2.9 °F 1.6 °F 1003.6 in WSW 1.6 mph 6.4 mph 91 % 2.5 in
11:45 3.3 °F 1.9 °F 1003.6 in West 1.6 mph 4.8 mph 91 % 3.0 in
12:00 3.5 °F 1.4 °F 1003.9 in WNW 1.6 mph 8.0 mph 86 % 3.3 in
12:15 3.7 °F 1.4 °F 1003.9 in WNW 1.6 mph 9.7 mph 85 % 3.0 in
12:30 4.1 °F 0.9 °F 1004.3 in WSW 1.6 mph 8.0 mph 80 % 3.0 in
12:45 4.3 °F 1.7 °F 1004.3 in WNW 4.8 mph 11.3 mph 83 % 3.3 in
13:00 4.3 °F 0.8 °F 1004.3 in NW 3.2 mph 9.7 mph 78 % 3.0 in
13:15 4.8 °F 0.9 °F 1004.3 in WNW 3.2 mph 9.7 mph 76 % 3.0 in
13:30 3.8 °F 1.5 °F 1004.6 in Calm   8.0 mph 85 % 2.5 in
13:45 2.8 °F 1.4 °F 1005.0 in Calm   1.6 mph 90 % 1.8 in
14:00 2.4 °F 1.2 °F 1005.3 in Calm     92 % 1.5 in
14:15 2.4 °F 1.4 °F 1005.3 in Calm     93 % 1.0 in
14:30 2.4 °F 1.4 °F 1005.6 in Calm   4.8 mph 93 % 1.3 in
14:45 2.6 °F 1.5 °F 1006.0 in Calm   4.8 mph 93 % 1.0 in
15:00 2.5 °F 1.5 °F 1006.0 in Calm   3.2 mph 93 % 1.3 in
15:15 2.5 °F 1.3 °F 1006.3 in ENE 1.6 mph 4.8 mph 92 % 1.5 in
15:30 2.7 °F 1.6 °F 1006.7 in Calm   1.6 mph 92 % 1.3 in
15:45 3.2 °F 1.7 °F 1006.7 in North 1.6 mph 8.0 mph 90 % 1.3 in
16:00 2.3 °F 0.9 °F 1007.0 in NNE 1.6 mph 4.8 mph 90 % 1.3 in
16:15 2.1 °F 0.6 °F 1007.3 in NNE 1.6 mph 6.4 mph 90 % 0.8 in
16:30 1.9 °F 0.6 °F 1007.3 in North 1.6 mph 4.8 mph 91 % 0.8 in
16:45 2.1 °F 0.7 °F 1007.7 in Calm   3.2 mph 91 % 0.5 in
17:00 2.2 °F 0.7 °F 1007.7 in Calm   1.6 mph 90 % 0.5 in
17:15 2.0 °F 0.4 °F 1008.0 in Calm   4.8 mph 89 % 0.5 in
17:30 1.8 °F 0.4 °F 1008.4 in Calm     90 % 0.3 in
17:45 1.8 °F 0.5 °F 1008.4 in Calm     91 % 0.3 in
18:00 2.1 °F 0.8 °F 1008.7 in Calm     91 % 0.3 in
18:15 2.1 °F 0.3 °F 1008.7 in Calm   1.6 mph 88 % 0.3 in
18:30 2.3 °F 0.3 °F 1008.7 in Calm   4.8 mph 87 % 0.3 in
18:45 2.6 °F 0.4 °F 1009.0 in Calm   6.4 mph 86 % 0.5 in
19:00 2.3 °F -0.1 °F 1009.0 in NNE 1.6 mph 4.8 mph 84 % 0.3 in
19:15 1.9 °F -0.3 °F 1009.4 in Calm   3.2 mph 85 % 0.3 in
19:30 1.8 °F -0.4 °F 1009.4 in Calm     85 % 0.3 in
19:45 1.7 °F -0.4 °F 1009.7 in Calm   1.6 mph 86 % 0.0 in
20:00 1.5 °F -0.4 °F 1010.0 in Calm   4.8 mph 87 % 0.0 in
20:15 1.3 °F -0.6 °F 1010.0 in Calm   3.2 mph 87 % 0.0 in
20:30 1.3 °F -0.5 °F 1010.4 in Calm   4.8 mph 88 % 0.0 in
20:45 1.2 °F -0.9 °F 1010.4 in Calm   6.4 mph 86 % 0.0 in
21:00 0.9 °F -1.0 °F 1010.7 in Calm   6.4 mph 87 % 0.0 in
21:15 0.7 °F -1.2 °F 1011.1 in Calm   3.2 mph 87 % 0.0 in
21:30 0.4 °F -1.3 °F 1011.1 in Calm   3.2 mph 88 % 0.0 in
21:45 0.1 °F -1.6 °F 1011.4 in Calm   1.6 mph 88 % 0.0 in
22:00 -0.1 °F -1.6 °F 1011.7 in Calm     90 % 0.0 in
22:15 -0.3 °F -1.9 °F 1012.1 in Calm     89 % 0.0 in
22:30 -0.6 °F -2.0 °F 1012.1 in Calm     90 % 0.0 in
22:45 -0.9 °F -2.2 °F 1012.4 in Calm     91 % 0.0 in
23:00 -1.1 °F -2.4 °F 1012.4 in Calm     91 % 0.0 in
23:15 -1.3 °F -2.4 °F 1012.8 in Calm     92 % 0.0 in
23:30 -1.4 °F -2.4 °F 1013.1 in Calm     93 % 0.0 in
23:45 -1.4 °F -2.4 °F 1013.1 in Calm     93 % 0.0 in
Esan sääasema
Terveisin Weather Underground - 2.75 mb

Alkuperäinen skripti  Jim McMurry - jmcmurry@mwt.net Sovitettu myös templatelle  Wim van der Kuil - Leuven-Template.eu

Laitteet joita käytämme:

Sääasema
Davis VP2

Sääasemaohjelma
Cumulus

Sääaseman tietokone
Asus EeePC

Palveluntarjoaja
Suncomet

Davis VP2

Cumulus

Asus EeePC

Suncomet